createdAt,value
2018-05-23T00:00:52.984Z,43.30
2018-05-23T00:03:21.510Z,42.87
2018-05-23T00:05:50.660Z,44.40
2018-05-23T00:08:19.900Z,44.93
2018-05-23T00:10:48.274Z,42.47
2018-05-23T00:13:16.762Z,47.73
2018-05-23T00:15:45.189Z,46.40
2018-05-23T00:18:13.573Z,47.63
2018-05-23T00:20:42.054Z,45.70
2018-05-23T00:23:10.433Z,46.43
2018-05-23T00:25:38.829Z,44.97
2018-05-23T00:28:07.266Z,46.13
2018-05-23T00:30:35.651Z,47.60
2018-05-23T00:33:04.053Z,43.70
2018-05-23T00:35:32.467Z,42.10
2018-05-23T00:38:00.900Z,44.73
2018-05-23T00:40:29.294Z,46.27
2018-05-23T00:42:57.697Z,44.07
2018-05-23T00:45:26.087Z,45.53
2018-05-23T00:47:54.494Z,48.57
2018-05-23T00:50:23.726Z,50.23
2018-05-23T00:52:52.034Z,49.53
2018-05-23T00:55:36.253Z,50.70
2018-05-23T00:58:04.748Z,46.53
2018-05-23T01:00:33.333Z,54.83
2018-05-23T01:03:01.810Z,50.90
2018-05-23T01:05:30.194Z,52.80
2018-05-23T01:07:58.612Z,50.20
2018-05-23T01:10:27.022Z,52.40
2018-05-23T01:12:55.550Z,51.43
2018-05-23T01:15:23.939Z,52.07
2018-05-23T01:17:52.339Z,51.03
2018-05-23T01:20:20.715Z,51.37
2018-05-23T01:22:49.095Z,49.90
2018-05-23T01:25:17.473Z,52.63
2018-05-23T01:27:45.863Z,51.97
2018-05-23T01:30:14.270Z,54.27
2018-05-23T01:32:42.660Z,54.80
2018-05-23T01:35:11.149Z,57.30
2018-05-23T01:37:39.528Z,53.97
2018-05-23T01:40:07.918Z,55.97
2018-05-23T01:42:36.303Z,57.53
2018-05-23T01:45:04.686Z,57.17
2018-05-23T01:47:33.114Z,57.67
2018-05-23T01:50:01.483Z,55.20
2018-05-23T01:52:30.637Z,59.03
2018-05-23T01:54:59.025Z,56.40
2018-05-23T01:57:27.417Z,60.40
2018-05-23T01:59:55.801Z,55.40
2018-05-23T02:02:24.193Z,56.50
2018-05-23T02:04:52.576Z,65.57
2018-05-23T02:07:20.976Z,63.13
2018-05-23T02:09:50.213Z,60.93
2018-05-23T02:12:18.748Z,60.77
2018-05-23T02:14:47.137Z,60.23
2018-05-23T02:17:16.282Z,62.80
2018-05-23T02:19:44.691Z,60.27
2018-05-23T02:22:13.113Z,58.70
2018-05-23T02:24:42.282Z,51.37
2018-05-23T02:27:10.683Z,50.53
2018-05-23T02:29:39.208Z,47.90
2018-05-23T02:32:07.604Z,47.83
2018-05-23T02:34:35.991Z,48.30
2018-05-23T02:37:04.394Z,55.17
2018-05-23T02:39:32.805Z,53.70
2018-05-23T02:42:01.250Z,56.73
2018-05-23T02:44:30.428Z,55.23
2018-05-23T02:46:58.836Z,54.73
2018-05-23T02:49:27.321Z,58.37
2018-05-23T02:51:56.477Z,54.67
2018-05-23T02:54:25.724Z,57.33
2018-05-23T02:56:54.133Z,56.93
2018-05-23T02:59:22.550Z,60.30
2018-05-23T03:01:51.732Z,65.17
2018-05-23T03:04:20.102Z,58.67
2018-05-23T03:06:48.495Z,62.80
2018-05-23T03:09:16.884Z,57.90
2018-05-23T03:11:45.289Z,60.60
2018-05-23T03:14:13.657Z,57.83
2018-05-23T03:16:42.810Z,61.57
2018-05-23T03:19:11.189Z,60.27
2018-05-23T03:21:39.582Z,64.17
2018-05-23T03:24:07.978Z,60.77
2018-05-23T03:26:36.378Z,63.23
2018-05-23T03:29:04.801Z,64.20
2018-05-23T03:31:33.179Z,65.43
2018-05-23T03:34:01.571Z,65.40
2018-05-23T03:36:29.958Z,64.87
2018-05-23T03:38:58.330Z,64.10
2018-05-23T03:41:26.721Z,60.90
2018-05-23T03:43:55.199Z,61.43
2018-05-23T03:46:23.660Z,60.83
2018-05-23T03:48:52.810Z,66.10
2018-05-23T03:51:21.250Z,63.30
2018-05-23T03:53:50.398Z,64.37
2018-05-23T03:56:18.796Z,65.17
2018-05-23T03:58:47.188Z,62.93
2018-05-23T04:01:33.409Z,68.20
2018-05-23T04:04:20.157Z,70.17
2018-05-23T04:09:59.854Z,64.63
2018-05-23T04:12:29.014Z,64.97
2018-05-23T04:14:57.422Z,67.27
2018-05-23T04:17:25.815Z,69.53
2018-05-23T04:19:55.017Z,69.57
2018-05-23T04:22:24.184Z,69.77
2018-05-23T04:24:52.653Z,67.00
2018-05-23T04:27:21.084Z,66.27
2018-05-23T04:29:49.390Z,65.27
2018-05-23T04:32:17.791Z,65.03
2018-05-23T04:34:46.237Z,65.70
2018-05-23T04:37:15.403Z,62.73
2018-05-23T04:39:43.809Z,64.00
2018-05-23T04:42:12.204Z,64.93
2018-05-23T04:44:41.435Z,64.10
2018-05-23T04:47:09.823Z,66.63
2018-05-23T04:49:38.253Z,67.53
2018-05-23T04:52:06.645Z,68.40
2018-05-23T04:54:35.034Z,64.17
2018-05-23T04:57:03.461Z,68.67
2018-05-23T04:59:31.852Z,68.33
2018-05-23T05:02:00.233Z,64.90
2018-05-23T05:04:28.651Z,67.00
2018-05-23T05:06:57.037Z,66.43
2018-05-23T05:09:25.572Z,67.53
2018-05-23T05:11:53.925Z,69.33
2018-05-23T05:14:23.075Z,64.73
2018-05-23T05:16:51.473Z,64.10
2018-05-23T05:19:19.874Z,65.73
2018-05-23T05:21:48.269Z,64.70
2018-05-23T05:24:16.673Z,65.10
2018-05-23T05:26:45.844Z,67.30
2018-05-23T05:29:14.313Z,65.77
2018-05-23T05:31:42.915Z,67.00
2018-05-23T05:34:12.003Z,72.03
2018-05-23T05:36:40.393Z,69.90
2018-05-23T05:39:08.773Z,65.53
2018-05-23T05:41:37.155Z,67.30
2018-05-23T05:44:06.329Z,66.43
2018-05-23T05:46:34.721Z,65.07
2018-05-23T05:49:03.129Z,63.40
2018-05-23T05:51:31.626Z,65.90
2018-05-23T05:54:00.042Z,64.00
2018-05-23T05:56:28.429Z,70.93
2018-05-23T05:58:56.849Z,67.47
2018-05-23T06:01:25.239Z,67.83
2018-05-23T06:03:53.613Z,67.30
2018-05-23T06:06:22.022Z,66.43
2018-05-23T06:08:50.414Z,67.50
2018-05-23T06:11:18.834Z,71.23
2018-05-23T06:13:47.242Z,66.20
2018-05-23T06:16:15.702Z,68.23
2018-05-23T06:18:44.106Z,65.33
2018-05-23T06:21:12.518Z,62.57
2018-05-23T06:23:40.987Z,65.53
2018-05-23T06:26:09.412Z,65.33
2018-05-23T06:28:38.589Z,67.50
2018-05-23T06:31:06.965Z,62.47
2018-05-23T06:33:35.358Z,63.50
2018-05-23T06:36:03.736Z,63.50
2018-05-23T06:38:32.150Z,67.60
2018-05-23T06:41:01.316Z,63.87
2018-05-23T06:43:29.795Z,65.13
2018-05-23T06:45:58.874Z,63.10
2018-05-23T06:48:27.265Z,64.60
2018-05-23T06:50:55.726Z,58.70
2018-05-23T06:53:24.201Z,59.77
2018-05-23T06:55:52.493Z,65.20
2018-05-23T06:58:20.894Z,64.50
2018-05-23T07:00:49.285Z,59.90
2018-05-23T07:03:17.701Z,61.20
2018-05-23T07:05:46.187Z,60.83
2018-05-23T07:08:15.254Z,59.90
2018-05-23T07:10:43.649Z,58.07
2018-05-23T07:13:12.894Z,59.60
2018-05-23T07:15:42.057Z,58.43
2018-05-23T07:18:11.298Z,58.13
2018-05-23T07:20:39.614Z,58.70
2018-05-23T07:23:07.989Z,55.03
2018-05-23T07:25:36.393Z,52.73
2018-05-23T07:28:05.541Z,53.90
2018-05-23T07:30:34.694Z,53.63
2018-05-23T07:33:03.080Z,49.00
2018-05-23T07:35:31.474Z,46.47
2018-05-23T07:38:01.452Z,49.60
2018-05-23T07:40:29.827Z,40.93
2018-05-23T07:42:58.257Z,38.40
2018-05-23T07:45:26.648Z,38.57
2018-05-23T07:47:55.059Z,38.60
2018-05-23T07:50:24.219Z,39.17
2018-05-23T07:52:52.591Z,36.90
2018-05-23T07:55:21.004Z,34.13
2018-05-23T07:57:49.445Z,33.07
2018-05-23T08:00:17.981Z,32.77
2018-05-23T08:02:46.385Z,32.53
2018-05-23T08:05:15.518Z,32.40
2018-05-23T08:07:43.920Z,33.20
2018-05-23T08:10:12.323Z,36.00
2018-05-23T08:12:40.730Z,36.63
2018-05-23T08:15:09.926Z,34.40
2018-05-23T08:17:39.097Z,35.33
2018-05-23T08:20:07.492Z,34.03
2018-05-23T08:22:35.901Z,38.20
2018-05-23T08:25:05.096Z,34.93
2018-05-23T08:27:33.525Z,31.27
2018-05-23T08:30:01.919Z,33.23
2018-05-23T08:32:30.517Z,31.13
2018-05-23T08:34:58.926Z,29.73
2018-05-23T08:37:27.329Z,30.53
2018-05-23T08:39:56.558Z,28.77
2018-05-23T08:42:24.974Z,31.50
2018-05-23T08:44:53.422Z,30.40
2018-05-23T08:47:21.840Z,28.10
2018-05-23T08:49:50.225Z,26.53
2018-05-23T08:52:18.595Z,26.40
2018-05-23T08:54:47.010Z,21.77
2018-05-23T08:57:15.422Z,15.53
2018-05-23T08:59:44.615Z,12.40
2018-05-23T09:02:13.059Z,13.07
2018-05-23T09:04:41.497Z,15.03
2018-05-23T09:07:10.645Z,12.60
2018-05-23T09:09:39.094Z,11.07
2018-05-23T09:12:07.625Z,9.13
2018-05-23T09:14:36.745Z,8.33
2018-05-23T09:17:05.166Z,8.67
2018-05-23T09:19:34.395Z,9.67
2018-05-23T09:22:02.819Z,10.93
2018-05-23T09:24:32.024Z,10.67
2018-05-23T09:27:01.192Z,9.20
2018-05-23T09:29:29.613Z,10.13
2018-05-23T09:31:58.902Z,7.13
2018-05-23T09:34:27.298Z,9.03
2018-05-23T09:36:56.470Z,9.03
2018-05-23T09:39:24.861Z,5.80
2018-05-23T09:41:53.310Z,5.10
2018-05-23T09:44:21.689Z,6.87
2018-05-23T09:46:50.067Z,8.63
2018-05-23T09:49:18.449Z,5.90
2018-05-23T09:51:46.832Z,7.33
2018-05-23T09:54:15.253Z,8.50
2018-05-23T09:56:43.648Z,6.43
2018-05-23T09:59:12.048Z,7.10
2018-05-23T10:01:41.206Z,6.37
2018-05-23T10:04:09.609Z,5.63
2018-05-23T10:06:38.005Z,5.60
2018-05-23T10:09:06.444Z,6.00
2018-05-23T10:11:34.833Z,5.37
2018-05-23T10:14:03.213Z,6.33
2018-05-23T10:16:31.672Z,6.27
2018-05-23T10:19:00.060Z,6.90
2018-05-23T10:21:28.460Z,5.60
2018-05-23T10:23:56.854Z,8.37
2018-05-23T10:26:25.352Z,4.73
2018-05-23T10:28:53.648Z,4.57
2018-05-23T10:31:22.032Z,4.90
2018-05-23T10:33:50.449Z,5.43
2018-05-23T10:36:19.605Z,5.13
2018-05-23T10:38:47.991Z,6.47
2018-05-23T10:41:17.157Z,5.87
2018-05-23T10:43:45.637Z,10.80
2018-05-23T10:46:14.099Z,5.00
2018-05-23T10:48:42.465Z,11.67
2018-05-23T10:51:10.835Z,4.80
2018-05-23T10:53:39.285Z,5.27
2018-05-23T10:56:07.663Z,6.70
2018-05-23T10:58:36.140Z,6.03
2018-05-23T11:01:04.518Z,6.17
2018-05-23T11:03:32.969Z,5.53
2018-05-23T11:06:02.320Z,5.43
2018-05-23T11:08:30.540Z,13.10
2018-05-23T11:10:58.919Z,7.13
2018-05-23T11:13:27.329Z,5.50
2018-05-23T11:15:56.484Z,8.70
2018-05-23T11:18:24.912Z,7.17
2018-05-23T11:20:53.373Z,6.43
2018-05-23T11:23:21.775Z,5.50
2018-05-23T11:25:50.193Z,7.90
2018-05-23T11:28:18.586Z,7.13
2018-05-23T11:30:46.986Z,8.90
2018-05-23T11:33:15.386Z,9.63
2018-05-23T11:35:43.813Z,7.77
2018-05-23T11:38:12.969Z,7.17
2018-05-23T11:40:41.345Z,6.03
2018-05-23T11:43:14.673Z,5.53
2018-05-23T11:45:43.054Z,6.33
2018-05-23T11:48:11.432Z,6.43
2018-05-23T11:50:39.809Z,9.37
2018-05-23T11:53:08.200Z,6.23
2018-05-23T11:55:36.590Z,6.30
2018-05-23T11:58:05.776Z,7.13
2018-05-23T12:00:34.225Z,6.87
2018-05-23T12:03:02.632Z,6.50
2018-05-23T12:05:31.042Z,6.30
2018-05-23T12:07:59.447Z,7.53
2018-05-23T12:10:28.641Z,8.90
2018-05-23T12:12:56.987Z,9.03
2018-05-23T12:15:25.406Z,6.53
2018-05-23T12:17:54.553Z,7.03
2018-05-23T12:20:22.978Z,9.10
2018-05-23T12:22:51.357Z,6.37
2018-05-23T12:25:19.782Z,9.90
2018-05-23T12:27:48.154Z,6.90
2018-05-23T12:30:17.309Z,7.93
2018-05-23T12:32:45.771Z,8.33
2018-05-23T12:35:14.257Z,8.10
2018-05-23T12:37:42.669Z,5.90
2018-05-23T12:40:11.144Z,6.33
2018-05-23T12:42:39.560Z,6.17
2018-05-23T12:45:08.710Z,6.40
2018-05-23T12:47:37.114Z,6.60
2018-05-23T12:50:05.544Z,6.27
2018-05-23T12:52:33.945Z,6.43
2018-05-23T12:55:02.389Z,5.60
2018-05-23T12:57:30.785Z,5.40
2018-05-23T12:59:59.956Z,8.77
2018-05-23T13:02:28.331Z,7.87
2018-05-23T13:04:56.711Z,6.03
2018-05-23T13:07:25.135Z,10.27
2018-05-23T13:09:54.273Z,6.83
2018-05-23T13:12:22.799Z,7.83
2018-05-23T13:14:51.210Z,4.67
2018-05-23T13:17:20.422Z,5.43
2018-05-23T13:19:48.801Z,6.10
2018-05-23T13:22:17.967Z,6.27
2018-05-23T13:24:46.352Z,5.53
2018-05-23T13:27:14.743Z,6.03
2018-05-23T13:29:43.134Z,5.97
2018-05-23T13:32:12.327Z,6.00
2018-05-23T13:34:40.733Z,5.63
2018-05-23T13:37:09.973Z,6.10
2018-05-23T13:39:38.436Z,6.20
2018-05-23T13:42:06.927Z,5.63
2018-05-23T13:44:35.329Z,5.80
2018-05-23T13:47:03.718Z,6.93
2018-05-23T13:49:32.151Z,6.43
2018-05-23T13:52:01.337Z,6.80
2018-05-23T13:54:29.727Z,7.23
2018-05-23T13:56:58.917Z,6.30
2018-05-23T13:59:27.304Z,5.00
2018-05-23T14:01:55.844Z,6.53
2018-05-23T14:04:24.134Z,6.00
2018-05-23T14:06:52.518Z,5.37
2018-05-23T14:09:20.877Z,5.90
2018-05-23T14:11:49.274Z,7.83
2018-05-23T14:14:17.660Z,4.77
2018-05-23T14:16:46.098Z,5.30
2018-05-23T14:19:15.253Z,6.03
2018-05-23T14:21:43.611Z,5.90
2018-05-23T14:24:12.014Z,5.10
2018-05-23T14:26:40.430Z,9.20
2018-05-23T14:29:08.802Z,5.60
2018-05-23T14:31:37.938Z,5.77
2018-05-23T14:34:07.117Z,7.07
2018-05-23T14:36:35.553Z,7.27
2018-05-23T14:39:03.916Z,6.63
2018-05-23T14:41:33.051Z,10.10
2018-05-23T14:44:01.467Z,7.63
2018-05-23T14:46:29.841Z,6.90
2018-05-23T14:48:58.233Z,6.57
2018-05-23T14:51:26.612Z,6.83
2018-05-23T14:53:55.009Z,13.90
2018-05-23T14:56:23.390Z,9.70
2018-05-23T14:58:51.766Z,8.40
2018-05-23T15:01:20.177Z,12.80
2018-05-23T15:03:49.354Z,8.57
2018-05-23T15:06:17.887Z,9.00
2018-05-23T15:08:46.211Z,9.20
2018-05-23T15:11:14.602Z,8.13
2018-05-23T15:13:42.983Z,12.47
2018-05-23T15:16:11.356Z,7.97
2018-05-23T15:18:39.749Z,7.97
2018-05-23T15:21:08.185Z,7.30
2018-05-23T15:23:36.572Z,6.97
2018-05-23T15:26:04.967Z,7.00
2018-05-23T15:28:33.358Z,7.80
2018-05-23T15:31:01.738Z,7.10
2018-05-23T15:33:30.211Z,8.37
2018-05-23T15:35:58.631Z,7.17
2018-05-23T15:38:27.034Z,8.17
2018-05-23T15:40:55.496Z,8.50
2018-05-23T15:43:24.656Z,8.63
2018-05-23T15:45:53.030Z,8.20
2018-05-23T15:48:22.187Z,8.97
2018-05-23T15:50:50.618Z,7.87
2018-05-23T15:53:19.015Z,8.47
2018-05-23T15:55:47.447Z,9.90
2018-05-23T15:58:15.834Z,9.37
2018-05-23T16:00:44.269Z,7.90
2018-05-23T16:03:12.706Z,10.40
2018-05-23T16:05:41.104Z,8.00
2018-05-23T16:08:10.257Z,7.57
2018-05-23T16:10:38.647Z,9.27
2018-05-23T16:13:07.040Z,9.73
2018-05-23T16:15:35.426Z,10.03
2018-05-23T16:18:03.824Z,10.10
2018-05-23T16:20:32.267Z,9.00
2018-05-23T16:23:01.396Z,12.47
2018-05-23T16:25:29.782Z,7.90
2018-05-23T16:27:58.958Z,11.63
2018-05-23T16:30:27.355Z,7.77
2018-05-23T16:32:55.730Z,10.00
2018-05-23T16:35:24.115Z,8.33
2018-05-23T16:37:52.548Z,13.40
2018-05-23T16:40:21.710Z,12.60
2018-05-23T16:42:50.193Z,8.23
2018-05-23T16:45:18.558Z,9.63
2018-05-23T16:47:46.949Z,8.10
2018-05-23T16:50:15.441Z,9.60
2018-05-23T16:52:43.887Z,11.10
2018-05-23T16:55:12.286Z,29.73
2018-05-23T16:57:40.767Z,12.23
2018-05-23T17:00:09.266Z,9.97
2018-05-23T17:02:37.642Z,8.37
2018-05-23T17:05:06.093Z,8.47
2018-05-23T17:07:34.518Z,8.70
2018-05-23T17:10:03.687Z,8.10
2018-05-23T17:12:32.132Z,8.37
2018-05-23T17:15:00.497Z,7.63
2018-05-23T17:17:28.888Z,11.07
2018-05-23T17:19:57.266Z,10.10
2018-05-23T17:22:25.743Z,8.50
2018-05-23T17:24:54.131Z,6.70
2018-05-23T17:27:23.285Z,9.50
2018-05-23T17:29:52.412Z,8.43
2018-05-23T17:32:20.966Z,6.80
2018-05-23T17:34:50.156Z,8.50
2018-05-23T17:37:19.324Z,8.20
2018-05-23T17:39:47.707Z,7.00
2018-05-23T17:42:16.087Z,8.30
2018-05-23T17:44:44.504Z,12.40
2018-05-23T17:47:13.714Z,8.40
2018-05-23T17:49:42.892Z,7.17
2018-05-23T17:52:11.282Z,6.33
2018-05-23T17:54:39.722Z,7.00
2018-05-23T17:57:08.190Z,8.70
2018-05-23T17:59:36.542Z,7.50
2018-05-23T18:02:04.919Z,7.27
2018-05-23T18:04:33.323Z,6.67
2018-05-23T18:07:02.484Z,6.70
2018-05-23T18:09:30.867Z,7.50
2018-05-23T18:11:59.262Z,8.10
2018-05-23T18:14:27.644Z,7.33
2018-05-23T18:16:56.021Z,7.07
2018-05-23T18:19:24.403Z,12.80
2018-05-23T18:21:52.859Z,9.63
2018-05-23T18:24:22.010Z,6.77
2018-05-23T18:26:51.174Z,6.20
2018-05-23T18:29:19.662Z,6.23
2018-05-23T18:31:47.975Z,6.00
2018-05-23T18:34:16.375Z,8.33
2018-05-23T18:36:45.527Z,7.90
2018-05-23T18:39:13.945Z,9.83
2018-05-23T18:41:43.134Z,6.33
2018-05-23T18:44:11.613Z,8.03
2018-05-23T18:46:40.004Z,10.63
2018-05-23T18:49:08.413Z,9.93
2018-05-23T18:51:37.573Z,5.70
2018-05-23T18:54:05.962Z,10.40
2018-05-23T18:56:34.384Z,8.03
2018-05-23T18:59:03.594Z,6.50
2018-05-23T19:01:32.013Z,11.50
2018-05-23T19:04:00.392Z,5.30
2018-05-23T19:06:28.794Z,6.00
2018-05-23T19:08:58.014Z,5.73
2018-05-23T19:11:26.436Z,9.47
2018-05-23T19:13:54.860Z,6.63
2018-05-23T19:16:23.211Z,6.70
2018-05-23T19:18:51.637Z,5.90
2018-05-23T19:21:20.053Z,13.83
2018-05-23T19:23:49.226Z,11.53
2018-05-23T19:26:17.657Z,5.30
2018-05-23T19:28:46.067Z,9.00
2018-05-23T19:31:14.471Z,5.90
2018-05-23T19:33:42.867Z,8.87
2018-05-23T19:36:11.233Z,6.30
2018-05-23T19:38:39.629Z,5.73
2018-05-23T19:41:08.020Z,7.20
2018-05-23T19:43:36.482Z,4.53
2018-05-23T19:46:05.015Z,6.87
2018-05-23T19:48:34.170Z,5.80
2018-05-23T19:51:02.571Z,5.20
2018-05-23T19:53:30.959Z,5.20
2018-05-23T19:55:59.362Z,7.10
2018-05-23T19:58:28.554Z,9.07
2018-05-23T20:00:57.720Z,5.20
2018-05-23T20:03:26.866Z,6.83
2018-05-23T20:05:56.037Z,6.50
2018-05-23T20:08:24.419Z,6.00
2018-05-23T20:10:52.803Z,6.80
2018-05-23T20:13:21.215Z,5.50
2018-05-23T20:15:50.501Z,8.63
2018-05-23T20:18:18.894Z,8.90
2018-05-23T20:20:48.201Z,5.00
2018-05-23T20:23:16.520Z,11.50
2018-05-23T20:25:44.938Z,7.57
2018-05-23T20:28:13.354Z,6.63
2018-05-23T20:30:42.580Z,7.97
2018-05-23T20:33:10.941Z,6.20
2018-05-23T20:35:40.114Z,5.63
2018-05-23T20:38:08.526Z,6.87
2018-05-23T20:40:37.873Z,7.60
2018-05-23T20:43:06.366Z,12.83
2018-05-23T20:45:35.522Z,7.00
2018-05-23T20:48:04.694Z,9.17
2018-05-23T20:50:33.262Z,8.53
2018-05-23T20:53:01.641Z,12.77
2018-05-23T20:55:30.011Z,5.70
2018-05-23T20:57:58.385Z,7.43
2018-05-23T21:00:26.797Z,9.73
2018-05-23T21:02:55.188Z,5.70
2018-05-23T21:05:23.661Z,5.40
2018-05-23T21:07:52.741Z,8.53
2018-05-23T21:10:21.174Z,6.10
2018-05-23T21:12:49.577Z,4.90
2018-05-23T21:15:18.727Z,7.10
2018-05-23T21:17:48.137Z,6.23
2018-05-23T21:20:16.543Z,4.30
2018-05-23T21:22:45.961Z,5.03
2018-05-23T21:25:14.379Z,9.00
2018-05-23T21:27:42.805Z,5.07
2018-05-23T21:30:11.150Z,4.70
2018-05-23T21:32:39.744Z,8.17
2018-05-23T21:35:08.149Z,8.53
2018-05-23T21:37:36.562Z,6.00
2018-05-23T21:40:04.981Z,11.80
2018-05-23T21:42:33.364Z,8.70
2018-05-23T21:45:01.800Z,6.40
2018-05-23T21:47:30.181Z,6.87
2018-05-23T21:49:58.582Z,4.77
2018-05-23T21:52:26.958Z,6.40
2018-05-23T21:54:55.343Z,8.30
2018-05-23T21:57:23.777Z,4.87
2018-05-23T21:59:52.157Z,8.53
2018-05-23T22:02:20.576Z,7.00
2018-05-23T22:04:48.973Z,4.13
2018-05-23T22:07:17.413Z,6.57
2018-05-23T22:09:45.821Z,5.60
2018-05-23T22:12:14.968Z,5.53
2018-05-23T22:14:44.163Z,5.30
2018-05-23T22:17:13.303Z,5.10
2018-05-23T22:19:41.764Z,5.50
2018-05-23T22:22:10.158Z,6.70
2018-05-23T22:24:38.581Z,5.10
2018-05-23T22:27:07.053Z,4.93
2018-05-23T22:29:35.615Z,4.83
2018-05-23T22:32:04.034Z,11.30
2018-05-23T22:34:32.770Z,4.27
2018-05-23T22:37:02.002Z,7.20
2018-05-23T22:39:30.418Z,6.23
2018-05-23T22:41:58.848Z,5.30
2018-05-23T22:44:28.036Z,8.27
2018-05-23T22:46:57.291Z,5.90
2018-05-23T22:49:25.810Z,8.67
2018-05-23T22:51:54.327Z,6.40
2018-05-23T22:54:22.800Z,10.20
2018-05-23T22:56:52.138Z,8.90
2018-05-23T22:59:20.562Z,6.60
2018-05-23T23:01:49.031Z,5.47
2018-05-23T23:04:18.246Z,4.73
2018-05-23T23:06:46.726Z,4.93
2018-05-23T23:09:15.223Z,7.47
2018-05-23T23:11:44.587Z,6.17
2018-05-23T23:14:13.024Z,6.07
2018-05-23T23:16:41.483Z,5.83
2018-05-23T23:19:10.021Z,5.93
2018-05-23T23:21:39.345Z,7.80
2018-05-23T23:24:08.058Z,4.93
2018-05-23T23:26:36.525Z,5.67
2018-05-23T23:29:05.667Z,5.63
2018-05-23T23:31:34.401Z,7.43
2018-05-23T23:34:02.826Z,6.07
2018-05-23T23:36:31.276Z,6.00
2018-05-23T23:38:59.773Z,5.20
2018-05-23T23:41:28.385Z,5.80
2018-05-23T23:43:56.809Z,5.20
2018-05-23T23:46:26.032Z,5.57
2018-05-23T23:48:54.467Z,4.83
2018-05-23T23:51:22.974Z,5.53
2018-05-23T23:53:52.388Z,5.67
2018-05-23T23:56:21.619Z,5.67
2018-05-23T23:58:50.146Z,7.00
